createdAt,value
2018-08-06T00:01:21.255Z,62.80
2018-08-06T00:03:52.901Z,63.00
2018-08-06T00:06:24.648Z,63.00
2018-08-06T00:08:56.481Z,63.20
2018-08-06T00:11:28.270Z,63.10
2018-08-06T00:14:00.126Z,63.30
2018-08-06T00:16:31.797Z,63.40
2018-08-06T00:19:03.668Z,63.50
2018-08-06T00:21:35.532Z,63.50
2018-08-06T00:24:07.458Z,63.50
2018-08-06T00:26:39.174Z,63.60
2018-08-06T00:29:11.170Z,63.90
2018-08-06T00:31:42.780Z,64.10
2018-08-06T00:34:14.388Z,64.10
2018-08-06T00:36:46.547Z,64.30
2018-08-06T00:39:18.329Z,64.30
2018-08-06T00:41:50.162Z,64.40
2018-08-06T00:44:21.925Z,64.60
2018-08-06T00:46:53.709Z,64.80
2018-08-06T00:49:25.645Z,64.80
2018-08-06T00:51:57.544Z,64.90
2018-08-06T00:54:29.470Z,64.80
2018-08-06T00:57:01.262Z,64.80
2018-08-06T00:59:33.126Z,64.80
2018-08-06T01:02:04.912Z,64.90
2018-08-06T01:04:36.701Z,64.90
2018-08-06T01:07:08.511Z,64.90
2018-08-06T01:09:40.332Z,64.90
2018-08-06T01:12:12.112Z,64.80
2018-08-06T01:14:43.977Z,64.90
2018-08-06T01:17:15.809Z,64.90
2018-08-06T01:19:47.602Z,64.90
2018-08-06T01:22:19.389Z,65.00
2018-08-06T01:24:51.389Z,65.10
2018-08-06T01:27:23.216Z,65.00
2018-08-06T01:29:55.022Z,64.90
2018-08-06T01:32:26.905Z,64.90
2018-08-06T01:34:58.790Z,65.20
2018-08-06T01:37:30.525Z,65.40
2018-08-06T01:40:02.277Z,65.50
2018-08-06T01:42:34.146Z,65.40
2018-08-06T01:45:06.534Z,65.40
2018-08-06T01:47:39.324Z,65.50
2018-08-06T01:50:12.445Z,65.60
2018-08-06T01:52:44.545Z,65.60
2018-08-06T01:55:16.447Z,65.70
2018-08-06T01:57:48.280Z,65.90
2018-08-06T02:00:20.372Z,65.70
2018-08-06T02:02:52.180Z,65.70
2018-08-06T02:05:23.887Z,65.70
2018-08-06T02:07:55.618Z,65.90
2018-08-06T02:10:27.458Z,66.10
2018-08-06T02:12:59.104Z,66.00
2018-08-06T02:15:30.890Z,65.80
2018-08-06T02:18:02.786Z,65.80
2018-08-06T02:20:34.435Z,65.90
2018-08-06T02:23:06.361Z,66.10
2018-08-06T02:25:38.129Z,66.20
2018-08-06T02:28:09.906Z,66.40
2018-08-06T02:30:41.829Z,66.40
2018-08-06T02:33:14.592Z,66.30
2018-08-06T02:35:46.409Z,66.30
2018-08-06T02:38:18.341Z,66.70
2018-08-06T02:40:50.130Z,66.50
2018-08-06T02:43:22.069Z,66.50
2018-08-06T02:45:54.080Z,66.80
2018-08-06T02:48:25.900Z,66.80
2018-08-06T02:50:57.579Z,66.80
2018-08-06T02:53:29.520Z,66.90
2018-08-06T02:56:01.239Z,66.60
2018-08-06T02:58:33.233Z,66.60
2018-08-06T03:01:05.024Z,66.80
2018-08-06T03:03:36.653Z,66.80
2018-08-06T03:06:08.824Z,66.80
2018-08-06T03:08:40.450Z,66.90
2018-08-06T03:11:12.153Z,67.20
2018-08-06T03:13:44.101Z,67.30
2018-08-06T03:16:15.997Z,67.50
2018-08-06T03:18:47.849Z,67.60
2018-08-06T03:21:19.485Z,67.60
2018-08-06T03:23:51.210Z,67.60
2018-08-06T03:26:23.124Z,67.60
2018-08-06T03:28:55.110Z,67.60
2018-08-06T03:31:26.870Z,67.60
2018-08-06T03:33:58.836Z,67.70
2018-08-06T03:36:30.589Z,68.10
2018-08-06T03:39:02.717Z,68.30
2018-08-06T03:41:34.502Z,68.60
2018-08-06T03:44:07.283Z,68.50
2018-08-06T03:46:39.349Z,68.50
2018-08-06T03:49:11.386Z,68.50
2018-08-06T03:51:43.390Z,68.60
2018-08-06T03:54:15.201Z,68.80
2018-08-06T03:56:47.937Z,69.40
2018-08-06T03:59:19.669Z,69.70
2018-08-06T04:01:51.540Z,70.00
2018-08-06T04:04:23.344Z,70.00
2018-08-06T04:06:55.166Z,70.00
2018-08-06T04:09:27.037Z,69.90
2018-08-06T04:11:58.899Z,69.90
2018-08-06T04:14:30.760Z,70.60
2018-08-06T04:17:02.396Z,69.60
2018-08-06T04:19:34.077Z,69.40
2018-08-06T04:22:06.093Z,69.50
2018-08-06T04:24:37.898Z,69.40
2018-08-06T04:27:09.813Z,69.40
2018-08-06T04:29:41.306Z,69.30
2018-08-06T04:32:13.061Z,69.30
2018-08-06T04:34:44.782Z,69.00
2018-08-06T04:37:16.720Z,68.80
2018-08-06T04:39:48.555Z,68.50
2018-08-06T04:42:20.543Z,68.30
2018-08-06T04:44:52.276Z,68.10
2018-08-06T04:47:24.097Z,67.80
2018-08-06T04:49:55.762Z,67.60
2018-08-06T04:52:27.715Z,67.50
2018-08-06T04:54:59.397Z,67.20
2018-08-06T04:57:31.143Z,67.00
2018-08-06T05:00:03.242Z,66.80
2018-08-06T05:02:35.154Z,66.60
2018-08-06T05:05:08.536Z,66.40
2018-08-06T05:07:40.532Z,66.20
2018-08-06T05:10:12.319Z,66.10
2018-08-06T05:12:44.263Z,66.30
2018-08-06T05:15:16.173Z,66.30
2018-08-06T05:17:48.058Z,65.70
2018-08-06T05:20:19.830Z,65.60
2018-08-06T05:22:51.676Z,65.40
2018-08-06T05:25:23.461Z,65.50
2018-08-06T05:27:55.250Z,65.10
2018-08-06T05:30:27.094Z,64.90
2018-08-06T05:32:58.972Z,64.70
2018-08-06T05:35:30.833Z,64.30
2018-08-06T05:38:02.752Z,64.00
2018-08-06T05:40:34.639Z,63.50
2018-08-06T05:43:06.629Z,63.20
2018-08-06T05:45:38.592Z,63.00
2018-08-06T05:48:10.553Z,63.40
2018-08-06T05:50:42.277Z,62.50
2018-08-06T05:53:14.271Z,62.50
2018-08-06T05:55:45.920Z,62.20
2018-08-06T05:58:17.816Z,61.80
2018-08-06T06:00:49.753Z,61.60
2018-08-06T06:03:21.804Z,61.40
2018-08-06T06:05:53.724Z,61.10
2018-08-06T06:08:25.487Z,60.70
2018-08-06T06:10:57.386Z,60.60
2018-08-06T06:13:29.234Z,60.10
2018-08-06T06:16:01.000Z,59.80
2018-08-06T06:18:32.961Z,59.80
2018-08-06T06:21:05.010Z,59.50
2018-08-06T06:23:36.918Z,59.20
2018-08-06T06:26:08.800Z,58.80
2018-08-06T06:28:40.570Z,58.60
2018-08-06T06:31:12.444Z,58.20
2018-08-06T06:33:44.320Z,57.90
2018-08-06T06:36:16.195Z,57.60
2018-08-06T06:38:47.864Z,57.60
2018-08-06T06:41:19.723Z,57.30
2018-08-06T06:43:51.703Z,57.00
2018-08-06T06:46:23.446Z,56.70
2018-08-06T06:48:55.431Z,56.50
2018-08-06T06:51:27.358Z,56.60
2018-08-06T06:53:59.119Z,55.70
2018-08-06T06:56:31.012Z,55.80
2018-08-06T06:59:02.852Z,55.40
2018-08-06T07:01:34.782Z,55.20
2018-08-06T07:04:06.643Z,54.90
2018-08-06T07:06:38.577Z,54.60
2018-08-06T07:09:12.672Z,54.50
2018-08-06T07:11:44.307Z,54.10
2018-08-06T07:14:16.392Z,53.50
2018-08-06T07:16:48.429Z,53.30
2018-08-06T07:19:20.197Z,52.70
2018-08-06T07:21:52.031Z,52.90
2018-08-06T07:24:23.945Z,52.70
2018-08-06T07:26:55.798Z,52.70
2018-08-06T07:29:27.770Z,51.80
2018-08-06T07:31:59.530Z,51.80
2018-08-06T07:34:31.249Z,52.30
2018-08-06T07:37:03.145Z,51.80
2018-08-06T07:39:35.053Z,51.10
2018-08-06T07:42:06.983Z,51.20
2018-08-06T07:44:38.833Z,50.80
2018-08-06T07:47:10.862Z,50.60
2018-08-06T07:49:42.731Z,49.80
2018-08-06T07:52:14.721Z,50.40
2018-08-06T07:54:46.596Z,49.60
2018-08-06T07:57:18.609Z,49.60
2018-08-06T07:59:50.555Z,49.30
2018-08-06T08:02:22.451Z,49.00
2018-08-06T08:04:54.334Z,48.70
2018-08-06T08:07:26.106Z,49.20
2018-08-06T08:09:58.065Z,48.90
2018-08-06T08:12:29.981Z,49.10
2018-08-06T08:17:32.981Z,48.00
2018-08-06T08:20:05.941Z,48.10
2018-08-06T08:22:37.846Z,47.40
2018-08-06T08:25:12.034Z,47.10
2018-08-06T08:27:44.131Z,46.70
2018-08-06T08:30:18.178Z,46.80
2018-08-06T08:32:49.667Z,46.40
2018-08-06T08:35:21.497Z,45.70
2018-08-06T08:37:53.493Z,46.30
2018-08-06T08:40:25.479Z,45.90
2018-08-06T08:42:57.181Z,45.50
2018-08-06T08:45:29.141Z,45.00
2018-08-06T08:48:00.917Z,44.30
2018-08-06T08:50:33.032Z,44.30
2018-08-06T08:53:05.024Z,43.40
2018-08-06T08:55:36.938Z,42.70
2018-08-06T08:58:08.753Z,43.00
2018-08-06T09:00:40.573Z,43.20
2018-08-06T09:03:12.416Z,42.70
2018-08-06T09:05:44.127Z,42.60
2018-08-06T09:08:15.925Z,42.50
2018-08-06T09:10:47.825Z,42.50
2018-08-06T09:13:19.491Z,42.20
2018-08-06T09:15:51.523Z,42.30
2018-08-06T09:18:23.361Z,41.90
2018-08-06T09:20:55.279Z,41.80
2018-08-06T09:23:27.053Z,41.90
2018-08-06T09:25:58.794Z,41.10
2018-08-06T09:28:30.725Z,40.90
2018-08-06T09:31:02.519Z,40.60
2018-08-06T09:33:34.372Z,40.90
2018-08-06T09:36:06.305Z,40.10
2018-08-06T09:38:38.091Z,39.80
2018-08-06T09:41:09.979Z,39.80
2018-08-06T09:43:41.822Z,39.70
2018-08-06T09:46:13.744Z,39.80
2018-08-06T09:48:45.448Z,39.80
2018-08-06T09:51:17.422Z,39.00
2018-08-06T09:53:49.245Z,39.20
2018-08-06T09:56:21.057Z,39.00
2018-08-06T09:58:52.962Z,39.50
2018-08-06T10:01:29.562Z,39.40
2018-08-06T10:04:01.330Z,39.00
2018-08-06T10:06:33.221Z,38.70
2018-08-06T10:09:06.629Z,38.30
2018-08-06T10:11:38.304Z,38.20
2018-08-06T10:14:10.102Z,37.60
2018-08-06T10:16:41.840Z,37.70
2018-08-06T10:19:13.844Z,37.70
2018-08-06T10:21:45.599Z,37.50
2018-08-06T10:24:17.419Z,37.10
2018-08-06T10:26:49.309Z,37.00
2018-08-06T10:29:21.062Z,36.00
2018-08-06T10:31:52.718Z,36.00
2018-08-06T10:34:24.539Z,36.50
2018-08-06T10:36:56.246Z,37.00
2018-08-06T10:39:28.274Z,35.90
2018-08-06T10:42:00.281Z,35.80
2018-08-06T10:44:32.025Z,36.30
2018-08-06T10:47:04.701Z,35.80
2018-08-06T10:49:36.480Z,35.30
2018-08-06T10:52:08.393Z,34.80
2018-08-06T10:54:40.282Z,33.70
2018-08-06T10:57:12.051Z,34.60
2018-08-06T10:59:43.722Z,34.90
2018-08-06T11:02:15.689Z,34.70
2018-08-06T11:07:18.281Z,33.20
2018-08-06T11:09:49.991Z,32.30
2018-08-06T11:12:21.770Z,32.60
2018-08-06T11:14:53.501Z,32.50
2018-08-06T11:17:25.298Z,32.60
2018-08-06T11:19:57.122Z,32.80
2018-08-06T11:22:29.043Z,33.10
2018-08-06T11:25:00.854Z,33.10
2018-08-06T11:27:32.863Z,32.60
2018-08-06T11:30:05.902Z,32.70
2018-08-06T11:32:37.976Z,30.90
2018-08-06T11:35:10.642Z,31.00
2018-08-06T11:37:42.825Z,31.00
2018-08-06T11:40:15.980Z,30.80
2018-08-06T11:42:48.409Z,30.50
2018-08-06T11:45:21.451Z,30.50
2018-08-06T11:47:53.349Z,30.20
2018-08-06T11:50:25.187Z,29.30
2018-08-06T11:52:56.989Z,29.70
2018-08-06T11:55:28.914Z,29.80
2018-08-06T11:58:00.514Z,29.00
2018-08-06T12:00:32.500Z,29.20
2018-08-06T12:03:04.325Z,29.30
2018-08-06T12:05:35.998Z,29.10
2018-08-06T12:08:07.968Z,29.10
2018-08-06T12:10:39.775Z,28.90
2018-08-06T12:13:11.588Z,28.40
2018-08-06T12:15:43.360Z,27.40
2018-08-06T12:18:15.091Z,27.90
2018-08-06T12:20:46.714Z,28.20
2018-08-06T12:23:18.582Z,28.30
2018-08-06T12:25:50.504Z,27.70
2018-08-06T12:28:22.400Z,27.50
2018-08-06T12:30:53.867Z,27.00
2018-08-06T12:33:25.728Z,27.80
2018-08-06T12:35:57.557Z,27.60
2018-08-06T12:38:44.163Z,27.80
2018-08-06T12:41:15.857Z,27.80
2018-08-06T12:43:47.646Z,27.80
2018-08-06T12:46:19.566Z,27.00
2018-08-06T12:48:51.370Z,26.90
2018-08-06T12:51:23.326Z,26.10
2018-08-06T12:53:55.669Z,26.90
2018-08-06T12:56:27.524Z,26.70
2018-08-06T12:58:59.288Z,26.90
2018-08-06T13:01:31.198Z,26.80
2018-08-06T13:04:02.823Z,26.30
2018-08-06T13:06:34.703Z,26.60
2018-08-06T13:09:09.530Z,26.90
2018-08-06T13:11:41.219Z,26.80
2018-08-06T13:14:13.106Z,27.00
2018-08-06T13:16:44.911Z,27.30
2018-08-06T13:19:16.730Z,26.50
2018-08-06T13:21:48.460Z,26.80
2018-08-06T13:24:20.267Z,26.70
2018-08-06T13:26:52.159Z,26.80
2018-08-06T13:29:23.895Z,26.80
2018-08-06T13:31:55.709Z,27.20
2018-08-06T13:34:27.585Z,26.80
2018-08-06T13:36:59.246Z,26.30
2018-08-06T13:39:31.238Z,26.10
2018-08-06T13:42:02.976Z,26.10
2018-08-06T13:44:34.760Z,26.00
2018-08-06T13:47:06.900Z,25.90
2018-08-06T13:49:38.825Z,25.90
2018-08-06T13:52:10.785Z,25.90
2018-08-06T13:54:43.031Z,25.90
2018-08-06T13:57:14.832Z,25.40
2018-08-06T13:59:46.919Z,25.90
2018-08-06T14:02:18.965Z,25.70
2018-08-06T14:04:50.884Z,26.20
2018-08-06T14:07:22.589Z,26.40
2018-08-06T14:09:54.203Z,26.70
2018-08-06T14:12:25.888Z,26.90
2018-08-06T14:14:57.768Z,27.50
2018-08-06T14:17:29.629Z,27.50
2018-08-06T14:20:01.596Z,27.30
2018-08-06T14:22:33.333Z,27.30
2018-08-06T14:25:05.423Z,27.20
2018-08-06T14:27:37.423Z,27.70
2018-08-06T14:30:12.860Z,27.60
2018-08-06T14:32:44.990Z,27.20
2018-08-06T14:35:17.146Z,27.10
2018-08-06T14:40:20.381Z,27.50
2018-08-06T14:42:55.385Z,27.50
2018-08-06T14:45:27.285Z,26.90
2018-08-06T14:47:59.025Z,27.00
2018-08-06T14:50:30.996Z,27.60
2018-08-06T14:53:02.744Z,27.50
2018-08-06T14:55:34.736Z,27.50
2018-08-06T14:58:06.492Z,28.10
2018-08-06T15:00:38.298Z,27.70
2018-08-06T15:03:10.246Z,27.80
2018-08-06T15:05:42.012Z,27.80
2018-08-06T15:08:13.873Z,27.60
2018-08-06T15:10:45.602Z,27.50
2018-08-06T15:13:17.498Z,27.40
2018-08-06T15:15:49.260Z,26.90
2018-08-06T15:18:21.115Z,27.50
2018-08-06T15:20:53.080Z,27.80
2018-08-06T15:23:24.908Z,27.40
2018-08-06T15:25:56.669Z,27.50
2018-08-06T15:28:28.401Z,27.30
2018-08-06T15:31:00.273Z,27.60
2018-08-06T15:33:32.207Z,27.60
2018-08-06T15:36:04.164Z,26.90
2018-08-06T15:38:36.545Z,27.10
2018-08-06T15:41:08.687Z,27.30
2018-08-06T15:43:40.388Z,27.20
2018-08-06T15:46:12.369Z,27.20
2018-08-06T15:48:44.129Z,27.30
2018-08-06T15:51:15.986Z,27.20
2018-08-06T15:53:47.931Z,27.40
2018-08-06T15:56:19.724Z,27.40
2018-08-06T15:58:51.301Z,27.40
2018-08-06T16:01:22.938Z,27.30
2018-08-06T16:03:54.875Z,26.80
2018-08-06T16:06:26.684Z,26.90
2018-08-06T16:08:58.380Z,27.20
2018-08-06T16:11:30.191Z,27.50
2018-08-06T16:14:01.812Z,27.50
2018-08-06T16:16:34.059Z,27.40
2018-08-06T16:19:05.998Z,27.20
2018-08-06T16:21:37.724Z,27.50
2018-08-06T16:24:09.484Z,27.90
2018-08-06T16:26:41.249Z,27.60
2018-08-06T16:29:13.127Z,27.30
2018-08-06T16:31:44.888Z,27.00
2018-08-06T16:34:16.781Z,27.30
2018-08-06T16:36:48.661Z,27.70
2018-08-06T16:39:20.342Z,27.30
2018-08-06T16:41:52.290Z,27.50
2018-08-06T16:44:24.295Z,27.50
2018-08-06T16:46:56.157Z,27.80
2018-08-06T16:49:28.084Z,27.90
2018-08-06T16:51:59.867Z,28.00
2018-08-06T16:54:31.745Z,28.10
2018-08-06T16:57:03.730Z,28.30
2018-08-06T16:59:35.512Z,28.40
2018-08-06T17:02:07.534Z,28.60
2018-08-06T17:04:39.102Z,28.60
2018-08-06T17:07:10.940Z,28.30
2018-08-06T17:09:42.805Z,28.60
2018-08-06T17:12:14.726Z,29.10
2018-08-06T17:14:46.465Z,29.20
2018-08-06T17:17:18.436Z,29.10
2018-08-06T17:19:50.193Z,29.10
2018-08-06T17:22:22.241Z,29.20
2018-08-06T17:24:54.059Z,29.50
2018-08-06T17:27:25.924Z,29.70
2018-08-06T17:29:57.741Z,29.90
2018-08-06T17:32:29.534Z,30.00
2018-08-06T17:35:01.306Z,30.00
2018-08-06T17:37:33.309Z,30.10
2018-08-06T17:40:06.453Z,30.30
2018-08-06T17:42:38.492Z,30.40
2018-08-06T17:45:14.573Z,30.50
2018-08-06T17:47:46.218Z,30.60
2018-08-06T17:50:20.091Z,30.90
2018-08-06T17:52:52.704Z,31.40
2018-08-06T17:55:24.736Z,31.70
2018-08-06T17:57:56.617Z,31.90
2018-08-06T18:00:28.249Z,32.30
2018-08-06T18:03:00.089Z,32.60
2018-08-06T18:05:32.055Z,33.00
2018-08-06T18:08:03.707Z,33.40
2018-08-06T18:10:35.503Z,33.60
2018-08-06T18:13:07.424Z,34.50
2018-08-06T18:15:39.302Z,34.20
2018-08-06T18:18:11.149Z,34.40
2018-08-06T18:20:42.965Z,34.60
2018-08-06T18:23:14.643Z,35.00
2018-08-06T18:25:46.521Z,34.30
2018-08-06T18:28:18.452Z,34.40
2018-08-06T18:30:50.137Z,34.40
2018-08-06T18:33:21.903Z,34.50
2018-08-06T18:35:53.385Z,34.60
2018-08-06T18:38:25.375Z,34.70
2018-08-06T18:40:57.190Z,35.00
2018-08-06T18:43:28.916Z,35.10
2018-08-06T18:46:00.866Z,35.50
2018-08-06T18:48:33.058Z,35.40
2018-08-06T18:51:04.809Z,35.50
2018-08-06T18:53:36.749Z,35.30
2018-08-06T18:56:08.640Z,35.40
2018-08-06T18:58:40.689Z,35.60
2018-08-06T19:01:12.569Z,35.80
2018-08-06T19:03:44.328Z,35.60
2018-08-06T19:06:16.365Z,35.60
2018-08-06T19:08:48.431Z,35.60
2018-08-06T19:11:20.225Z,35.50
2018-08-06T19:13:57.049Z,35.60
2018-08-06T19:16:29.229Z,35.70
2018-08-06T19:19:06.005Z,35.70
2018-08-06T19:21:37.898Z,35.70
2018-08-06T19:24:14.590Z,35.90
2018-08-06T19:26:46.457Z,36.90
2018-08-06T19:29:18.086Z,37.90
2018-08-06T19:31:50.042Z,38.60
2018-08-06T19:34:22.088Z,39.00
2018-08-06T19:36:58.552Z,39.60
2018-08-06T19:39:30.341Z,40.10
2018-08-06T19:42:02.218Z,40.60
2018-08-06T19:44:34.147Z,41.20
2018-08-06T19:47:06.055Z,41.80
2018-08-06T19:49:42.615Z,42.30
2018-08-06T19:52:14.393Z,42.70
2018-08-06T19:54:46.221Z,43.20
2018-08-06T19:57:17.887Z,43.70
2018-08-06T19:59:49.718Z,44.00
2018-08-06T20:02:21.610Z,44.10
2018-08-06T20:04:53.489Z,44.10
2018-08-06T20:07:25.300Z,43.80
2018-08-06T20:09:57.194Z,44.10
2018-08-06T20:12:29.073Z,44.40
2018-08-06T20:15:01.037Z,44.70
2018-08-06T20:17:32.741Z,45.10
2018-08-06T20:20:04.586Z,45.40
2018-08-06T20:22:36.497Z,45.70
2018-08-06T20:25:13.067Z,46.10
2018-08-06T20:27:45.166Z,46.30
2018-08-06T20:30:19.901Z,46.70
2018-08-06T20:32:51.824Z,46.70
2018-08-06T20:35:23.647Z,47.40
2018-08-06T20:37:55.164Z,47.00
2018-08-06T20:40:27.217Z,47.30
2018-08-06T20:42:59.186Z,47.50
2018-08-06T20:45:30.974Z,47.70
2018-08-06T20:48:02.962Z,47.70
2018-08-06T20:50:34.821Z,47.80
2018-08-06T20:53:06.739Z,48.00
2018-08-06T20:55:38.302Z,48.40
2018-08-06T20:58:09.980Z,48.50
2018-08-06T21:00:41.896Z,48.60
2018-08-06T21:03:13.688Z,49.40
2018-08-06T21:05:45.616Z,49.00
2018-08-06T21:08:17.803Z,49.20
2018-08-06T21:10:49.536Z,49.20
2018-08-06T21:13:21.401Z,49.30
2018-08-06T21:15:53.341Z,49.50
2018-08-06T21:18:25.302Z,49.70
2018-08-06T21:20:57.084Z,49.70
2018-08-06T21:23:29.029Z,49.90
2018-08-06T21:26:00.938Z,50.30
2018-08-06T21:28:32.777Z,50.50
2018-08-06T21:31:04.425Z,50.70
2018-08-06T21:33:36.267Z,51.00
2018-08-06T21:36:08.166Z,51.30
2018-08-06T21:38:45.039Z,51.50
2018-08-06T21:41:16.794Z,51.70
2018-08-06T21:43:49.839Z,51.80
2018-08-06T21:46:26.513Z,52.00
2018-08-06T21:48:58.331Z,52.10
2018-08-06T21:51:30.158Z,52.30
2018-08-06T21:54:02.373Z,52.30
2018-08-06T21:56:34.101Z,52.20
2018-08-06T21:59:06.041Z,52.30
2018-08-06T22:01:38.414Z,52.30
2018-08-06T22:04:11.372Z,52.30
2018-08-06T22:06:44.006Z,52.40
2018-08-06T22:09:15.842Z,53.20
2018-08-06T22:11:47.751Z,52.30
2018-08-06T22:14:19.594Z,52.10
2018-08-06T22:16:51.352Z,52.00
2018-08-06T22:19:23.325Z,51.80
2018-08-06T22:21:55.079Z,51.50
2018-08-06T22:24:27.006Z,51.40
2018-08-06T22:26:58.790Z,51.30
2018-08-06T22:29:30.841Z,51.30
2018-08-06T22:32:02.630Z,51.30
2018-08-06T22:34:34.441Z,51.40
2018-08-06T22:37:06.420Z,51.60
2018-08-06T22:39:38.429Z,51.60
2018-08-06T22:42:10.392Z,51.70
2018-08-06T22:44:42.198Z,51.60
2018-08-06T22:47:13.985Z,51.50
2018-08-06T22:49:45.674Z,51.70
2018-08-06T22:52:17.472Z,52.00
2018-08-06T22:54:49.390Z,52.30
2018-08-06T22:57:21.106Z,52.50
2018-08-06T22:59:53.089Z,52.70
2018-08-06T23:02:25.027Z,52.60
2018-08-06T23:04:56.893Z,52.50
2018-08-06T23:07:28.800Z,52.30
2018-08-06T23:10:00.713Z,52.30
2018-08-06T23:12:32.509Z,52.30
2018-08-06T23:15:04.366Z,52.50
2018-08-06T23:17:36.201Z,52.60
2018-08-06T23:20:09.125Z,52.70
2018-08-06T23:22:41.094Z,52.90
2018-08-06T23:25:13.023Z,52.90
2018-08-06T23:27:44.693Z,52.90
2018-08-06T23:30:16.727Z,53.00
2018-08-06T23:32:48.589Z,53.00
2018-08-06T23:35:20.405Z,53.00
2018-08-06T23:37:52.312Z,53.10
2018-08-06T23:40:24.130Z,53.20
2018-08-06T23:42:56.133Z,53.20
2018-08-06T23:45:28.102Z,54.00
2018-08-06T23:47:59.910Z,53.40
2018-08-06T23:50:31.632Z,53.20
2018-08-06T23:53:03.419Z,53.30
2018-08-06T23:55:35.377Z,53.50
2018-08-06T23:58:07.415Z,53.40
